Adair Village, Oregon
Current Conditions -  °F | °C
As of 6:15 AM on Monday 20 Oct 2014 (Local Time) from KCVO Reporting Station
Overcast Overcast  
Wind Chill: 15°   Ceiling: 3000
Heat Index: 15°   Visibility: 10mi
Dew Point: 13°   Wind: 7mph
Humidity: 88%   Direction: 170°S
Pressure: 29.77"   Gusts: NA
Location:  44.6364°N, 123.28°W
Report Text: KCVO 201315Z AUTO 17006KT 10SM OVC030 15/13 A2977 RMK AO1
Loading
Personal Weather Stations






























Interactive Weather Map
Tropical Storm Tracking
New forecast layout! Learn more

10-Day Weather Forecast

Advertisements
Track Severe Weather on mobile